sensor_id;sensor_type;location;lat;lon;timestamp;P1;durP1;ratioP1;P2;durP2;ratioP2
15677;SDS011;7939;50.814;6.368;2023-08-06T00:01:17;1.00;;;1.00;;
15677;SDS011;7939;50.814;6.368;2023-08-06T00:03:46;0.85;;;0.85;;
15677;SDS011;7939;50.814;6.368;2023-08-06T00:06:13;1.15;;;1.00;;
15677;SDS011;7939;50.814;6.368;2023-08-06T00:08:39;0.90;;;0.90;;
15677;SDS011;7939;50.814;6.368;2023-08-06T00:11:07;1.67;;;0.90;;
15677;SDS011;7939;50.814;6.368;2023-08-06T00:13:34;0.80;;;0.80;;
15677;SDS011;7939;50.814;6.368;2023-08-06T00:16:08;0.90;;;0.90;;
15677;SDS011;7939;50.814;6.368;2023-08-06T00:18:34;0.90;;;0.90;;
15677;SDS011;7939;50.814;6.368;2023-08-06T00:21:01;2.40;;;1.40;;
15677;SDS011;7939;50.814;6.368;2023-08-06T00:23:27;0.95;;;0.90;;
15677;SDS011;7939;50.814;6.368;2023-08-06T00:25:54;1.52;;;0.98;;
15677;SDS011;7939;50.814;6.368;2023-08-06T00:28:22;1.13;;;1.02;;
15677;SDS011;7939;50.814;6.368;2023-08-06T00:30:52;1.13;;;0.70;;
15677;SDS011;7939;50.814;6.368;2023-08-06T00:33:19;1.13;;;1.02;;
15677;SDS011;7939;50.814;6.368;2023-08-06T00:35:45;0.75;;;0.75;;
15677;SDS011;7939;50.814;6.368;2023-08-06T00:38:12;1.00;;;0.90;;
15677;SDS011;7939;50.814;6.368;2023-08-06T00:40:39;0.88;;;0.88;;
15677;SDS011;7939;50.814;6.368;2023-08-06T00:43:05;0.88;;;0.88;;
15677;SDS011;7939;50.814;6.368;2023-08-06T00:45:34;1.00;;;0.88;;
15677;SDS011;7939;50.814;6.368;2023-08-06T00:48:02;1.30;;;0.85;;
15677;SDS011;7939;50.814;6.368;2023-08-06T00:50:31;0.80;;;0.80;;
15677;SDS011;7939;50.814;6.368;2023-08-06T00:52:57;0.80;;;0.80;;
15677;SDS011;7939;50.814;6.368;2023-08-06T00:55:25;2.13;;;0.82;;
15677;SDS011;7939;50.814;6.368;2023-08-06T00:57:52;0.88;;;0.82;;
15677;SDS011;7939;50.814;6.368;2023-08-06T01:00:21;1.60;;;1.00;;
15677;SDS011;7939;50.814;6.368;2023-08-06T01:02:49;1.10;;;1.00;;
15677;SDS011;7939;50.814;6.368;2023-08-06T01:05:16;1.05;;;0.77;;
15677;SDS011;7939;50.814;6.368;2023-08-06T01:07:45;0.95;;;0.90;;
15677;SDS011;7939;50.814;6.368;2023-08-06T01:10:20;1.75;;;1.00;;
15677;SDS011;7939;50.814;6.368;2023-08-06T01:12:57;0.70;;;0.70;;
15677;SDS011;7939;50.814;6.368;2023-08-06T01:15:35;0.68;;;0.60;;
15677;SDS011;7939;50.814;6.368;2023-08-06T01:18:08;1.30;;;0.75;;
15677;SDS011;7939;50.814;6.368;2023-08-06T01:20:36;2.25;;;0.70;;
15677;SDS011;7939;50.814;6.368;2023-08-06T01:23:03;2.33;;;0.95;;
15677;SDS011;7939;50.814;6.368;2023-08-06T01:25:30;1.10;;;1.00;;
15677;SDS011;7939;50.814;6.368;2023-08-06T01:28:01;1.80;;;1.15;;
15677;SDS011;7939;50.814;6.368;2023-08-06T01:30:35;0.88;;;0.82;;
15677;SDS011;7939;50.814;6.368;2023-08-06T01:33:06;1.55;;;0.82;;
15677;SDS011;7939;50.814;6.368;2023-08-06T01:35:42;1.10;;;0.77;;
15677;SDS011;7939;50.814;6.368;2023-08-06T01:38:09;0.73;;;0.70;;
15677;SDS011;7939;50.814;6.368;2023-08-06T01:40:36;0.73;;;0.65;;
15677;SDS011;7939;50.814;6.368;2023-08-06T01:43:02;1.02;;;0.68;;
15677;SDS011;7939;50.814;6.368;2023-08-06T01:45:29;1.45;;;0.90;;
15677;SDS011;7939;50.814;6.368;2023-08-06T01:47:55;1.77;;;0.90;;
15677;SDS011;7939;50.814;6.368;2023-08-06T01:50:22;1.02;;;0.77;;
15677;SDS011;7939;50.814;6.368;2023-08-06T01:52:50;3.90;;;0.73;;
15677;SDS011;7939;50.814;6.368;2023-08-06T01:55:16;1.42;;;0.68;;
15677;SDS011;7939;50.814;6.368;2023-08-06T01:57:43;1.20;;;0.90;;
15677;SDS011;7939;50.814;6.368;2023-08-06T02:00:10;0.77;;;0.77;;
15677;SDS011;7939;50.814;6.368;2023-08-06T02:02:38;0.95;;;0.85;;
15677;SDS011;7939;50.814;6.368;2023-08-06T02:05:06;1.00;;;0.80;;
15677;SDS011;7939;50.814;6.368;2023-08-06T02:07:33;1.00;;;0.85;;
15677;SDS011;7939;50.814;6.368;2023-08-06T02:10:01;0.63;;;0.60;;
15677;SDS011;7939;50.814;6.368;2023-08-06T02:12:28;1.00;;;0.77;;
15677;SDS011;7939;50.814;6.368;2023-08-06T02:14:54;0.80;;;0.80;;
15677;SDS011;7939;50.814;6.368;2023-08-06T02:17:21;1.90;;;0.70;;
15677;SDS011;7939;50.814;6.368;2023-08-06T02:19:47;0.93;;;0.82;;
15677;SDS011;7939;50.814;6.368;2023-08-06T02:22:14;1.60;;;0.85;;
15677;SDS011;7939;50.814;6.368;2023-08-06T02:24:40;1.05;;;0.70;;
15677;SDS011;7939;50.814;6.368;2023-08-06T02:27:08;0.82;;;0.70;;
15677;SDS011;7939;50.814;6.368;2023-08-06T02:29:35;0.82;;;0.75;;
15677;SDS011;7939;50.814;6.368;2023-08-06T02:32:01;1.42;;;0.90;;
15677;SDS011;7939;50.814;6.368;2023-08-06T02:34:28;0.80;;;0.80;;
15677;SDS011;7939;50.814;6.368;2023-08-06T02:36:55;1.00;;;0.82;;
15677;SDS011;7939;50.814;6.368;2023-08-06T02:39:21;0.80;;;0.80;;
15677;SDS011;7939;50.814;6.368;2023-08-06T02:41:48;0.82;;;0.82;;
15677;SDS011;7939;50.814;6.368;2023-08-06T02:44:16;0.85;;;0.85;;
15677;SDS011;7939;50.814;6.368;2023-08-06T02:46:43;1.05;;;0.90;;
15677;SDS011;7939;50.814;6.368;2023-08-06T02:49:10;0.65;;;0.60;;
15677;SDS011;7939;50.814;6.368;2023-08-06T02:51:37;1.92;;;0.90;;
15677;SDS011;7939;50.814;6.368;2023-08-06T02:54:03;1.05;;;0.70;;
15677;SDS011;7939;50.814;6.368;2023-08-06T02:56:30;1.08;;;0.82;;
15677;SDS011;7939;50.814;6.368;2023-08-06T02:58:57;0.95;;;0.85;;
15677;SDS011;7939;50.814;6.368;2023-08-06T03:01:24;2.45;;;1.10;;
15677;SDS011;7939;50.814;6.368;2023-08-06T03:03:52;2.45;;;1.23;;
15677;SDS011;7939;50.814;6.368;2023-08-06T03:06:18;1.30;;;0.85;;
15677;SDS011;7939;50.814;6.368;2023-08-06T03:08:45;0.70;;;0.70;;
15677;SDS011;7939;50.814;6.368;2023-08-06T03:11:11;7.97;;;1.33;;
15677;SDS011;7939;50.814;6.368;2023-08-06T03:13:38;2.13;;;1.00;;
15677;SDS011;7939;50.814;6.368;2023-08-06T03:16:04;0.93;;;0.90;;
15677;SDS011;7939;50.814;6.368;2023-08-06T03:18:32;1.00;;;0.90;;
15677;SDS011;7939;50.814;6.368;2023-08-06T03:20:59;1.67;;;0.88;;
15677;SDS011;7939;50.814;6.368;2023-08-06T03:23:25;1.45;;;0.90;;
15677;SDS011;7939;50.814;6.368;2023-08-06T03:25:52;1.13;;;0.98;;
15677;SDS011;7939;50.814;6.368;2023-08-06T03:28:19;2.10;;;0.82;;
15677;SDS011;7939;50.814;6.368;2023-08-06T03:30:45;2.00;;;0.88;;
15677;SDS011;7939;50.814;6.368;2023-08-06T03:33:12;1.52;;;1.20;;
15677;SDS011;7939;50.814;6.368;2023-08-06T03:35:40;0.82;;;0.80;;
15677;SDS011;7939;50.814;6.368;2023-08-06T03:38:06;1.20;;;0.68;;
15677;SDS011;7939;50.814;6.368;2023-08-06T03:40:34;2.13;;;1.25;;
15677;SDS011;7939;50.814;6.368;2023-08-06T03:43:01;1.55;;;1.00;;
15677;SDS011;7939;50.814;6.368;2023-08-06T03:45:28;0.98;;;0.82;;
15677;SDS011;7939;50.814;6.368;2023-08-06T03:47:54;0.90;;;0.90;;
15677;SDS011;7939;50.814;6.368;2023-08-06T03:50:21;1.15;;;1.05;;
15677;SDS011;7939;50.814;6.368;2023-08-06T03:52:49;1.67;;;0.82;;
15677;SDS011;7939;50.814;6.368;2023-08-06T03:55:15;2.00;;;0.93;;
15677;SDS011;7939;50.814;6.368;2023-08-06T03:57:42;1.38;;;0.93;;
15677;SDS011;7939;50.814;6.368;2023-08-06T04:00:08;2.20;;;0.80;;
15677;SDS011;7939;50.814;6.368;2023-08-06T04:02:35;1.10;;;0.80;;
15677;SDS011;7939;50.814;6.368;2023-08-06T04:05:02;1.42;;;0.80;;
15677;SDS011;7939;50.814;6.368;2023-08-06T04:07:29;1.52;;;1.10;;
15677;SDS011;7939;50.814;6.368;2023-08-06T04:09:58;1.25;;;0.93;;
15677;SDS011;7939;50.814;6.368;2023-08-06T04:12:25;1.75;;;0.90;;
15677;SDS011;7939;50.814;6.368;2023-08-06T04:14:52;2.85;;;0.98;;
15677;SDS011;7939;50.814;6.368;2023-08-06T04:17:19;1.98;;;0.82;;
15677;SDS011;7939;50.814;6.368;2023-08-06T04:19:47;2.00;;;0.80;;
15677;SDS011;7939;50.814;6.368;2023-08-06T04:22:14;1.20;;;1.10;;
15677;SDS011;7939;50.814;6.368;2023-08-06T04:24:41;1.05;;;1.00;;
15677;SDS011;7939;50.814;6.368;2023-08-06T04:27:09;3.33;;;1.02;;
15677;SDS011;7939;50.814;6.368;2023-08-06T04:29:36;1.58;;;0.80;;
15677;SDS011;7939;50.814;6.368;2023-08-06T04:32:03;1.73;;;0.95;;
15677;SDS011;7939;50.814;6.368;2023-08-06T04:34:31;1.17;;;0.93;;
15677;SDS011;7939;50.814;6.368;2023-08-06T04:36:58;3.03;;;1.02;;
15677;SDS011;7939;50.814;6.368;2023-08-06T04:39:25;3.00;;;1.10;;
15677;SDS011;7939;50.814;6.368;2023-08-06T04:41:51;0.95;;;0.75;;
15677;SDS011;7939;50.814;6.368;2023-08-06T04:44:20;0.90;;;0.90;;
15677;SDS011;7939;50.814;6.368;2023-08-06T04:46:46;1.10;;;1.00;;
15677;SDS011;7939;50.814;6.368;2023-08-06T04:49:13;0.90;;;0.88;;
15677;SDS011;7939;50.814;6.368;2023-08-06T04:51:40;1.17;;;0.93;;
15677;SDS011;7939;50.814;6.368;2023-08-06T04:54:06;2.47;;;1.00;;
15677;SDS011;7939;50.814;6.368;2023-08-06T04:56:33;1.42;;;1.00;;
15677;SDS011;7939;50.814;6.368;2023-08-06T04:58:59;1.42;;;1.30;;
15677;SDS011;7939;50.814;6.368;2023-08-06T05:01:27;1.23;;;0.95;;
15677;SDS011;7939;50.814;6.368;2023-08-06T05:03:54;1.35;;;0.80;;
15677;SDS011;7939;50.814;6.368;2023-08-06T05:06:20;2.03;;;1.00;;
15677;SDS011;7939;50.814;6.368;2023-08-06T05:08:47;1.42;;;0.90;;
15677;SDS011;7939;50.814;6.368;2023-08-06T05:11:13;3.78;;;1.50;;
15677;SDS011;7939;50.814;6.368;2023-08-06T05:13:40;1.92;;;1.20;;
15677;SDS011;7939;50.814;6.368;2023-08-06T05:16:07;1.80;;;0.95;;
15677;SDS011;7939;50.814;6.368;2023-08-06T05:18:34;1.50;;;0.93;;
15677;SDS011;7939;50.814;6.368;2023-08-06T05:21:02;2.03;;;1.30;;
15677;SDS011;7939;50.814;6.368;2023-08-06T05:23:29;2.65;;;1.30;;
15677;SDS011;7939;50.814;6.368;2023-08-06T05:25:56;1.17;;;0.98;;
15677;SDS011;7939;50.814;6.368;2023-08-06T05:28:22;2.13;;;1.50;;
15677;SDS011;7939;50.814;6.368;2023-08-06T05:30:49;1.73;;;1.38;;
15677;SDS011;7939;50.814;6.368;2023-08-06T05:33:15;1.45;;;1.20;;
15677;SDS011;7939;50.814;6.368;2023-08-06T05:35:43;1.90;;;1.00;;
15677;SDS011;7939;50.814;6.368;2023-08-06T05:38:10;2.47;;;1.27;;
15677;SDS011;7939;50.814;6.368;2023-08-06T05:40:36;1.92;;;1.20;;
15677;SDS011;7939;50.814;6.368;2023-08-06T05:43:03;1.30;;;1.20;;
15677;SDS011;7939;50.814;6.368;2023-08-06T05:45:29;1.30;;;1.20;;
15677;SDS011;7939;50.814;6.368;2023-08-06T05:47:56;2.95;;;1.70;;
15677;SDS011;7939;50.814;6.368;2023-08-06T05:50:23;2.53;;;1.80;;
15677;SDS011;7939;50.814;6.368;2023-08-06T05:52:51;3.08;;;1.60;;
15677;SDS011;7939;50.814;6.368;2023-08-06T05:55:19;1.73;;;1.15;;
15677;SDS011;7939;50.814;6.368;2023-08-06T05:57:46;2.08;;;1.50;;
15677;SDS011;7939;50.814;6.368;2023-08-06T06:00:12;3.08;;;1.77;;
15677;SDS011;7939;50.814;6.368;2023-08-06T06:02:39;2.13;;;1.80;;
15677;SDS011;7939;50.814;6.368;2023-08-06T06:05:06;2.42;;;1.90;;
15677;SDS011;7939;50.814;6.368;2023-08-06T06:07:33;3.30;;;2.03;;
15677;SDS011;7939;50.814;6.368;2023-08-06T06:10:01;1.80;;;1.50;;
15677;SDS011;7939;50.814;6.368;2023-08-06T06:12:28;3.70;;;2.08;;
15677;SDS011;7939;50.814;6.368;2023-08-06T06:14:54;4.75;;;2.35;;
15677;SDS011;7939;50.814;6.368;2023-08-06T06:17:21;2.60;;;2.20;;
15677;SDS011;7939;50.814;6.368;2023-08-06T06:19:47;3.67;;;2.00;;
15677;SDS011;7939;50.814;6.368;2023-08-06T06:22:14;2.40;;;2.20;;
15677;SDS011;7939;50.814;6.368;2023-08-06T06:24:41;3.63;;;2.60;;
15677;SDS011;7939;50.814;6.368;2023-08-06T06:27:09;4.78;;;2.35;;
15677;SDS011;7939;50.814;6.368;2023-08-06T06:29:35;2.30;;;2.10;;
15677;SDS011;7939;50.814;6.368;2023-08-06T06:32:02;3.03;;;2.45;;
15677;SDS011;7939;50.814;6.368;2023-08-06T06:34:28;2.88;;;2.38;;
15677;SDS011;7939;50.814;6.368;2023-08-06T06:36:55;2.67;;;2.40;;
15677;SDS011;7939;50.814;6.368;2023-08-06T06:39:22;3.83;;;2.50;;
15677;SDS011;7939;50.814;6.368;2023-08-06T06:41:48;3.50;;;2.55;;
15677;SDS011;7939;50.814;6.368;2023-08-06T06:44:16;2.60;;;2.40;;
15677;SDS011;7939;50.814;6.368;2023-08-06T06:46:45;4.72;;;3.08;;
15677;SDS011;7939;50.814;6.368;2023-08-06T06:49:11;4.80;;;3.13;;
15677;SDS011;7939;50.814;6.368;2023-08-06T06:51:38;4.18;;;3.10;;
15677;SDS011;7939;50.814;6.368;2023-08-06T06:54:04;5.07;;;2.85;;
15677;SDS011;7939;50.814;6.368;2023-08-06T06:56:31;3.30;;;3.00;;
15677;SDS011;7939;50.814;6.368;2023-08-06T06:58:57;4.30;;;3.17;;
15677;SDS011;7939;50.814;6.368;2023-08-06T07:01:25;4.93;;;2.58;;
15677;SDS011;7939;50.814;6.368;2023-08-06T07:03:52;3.30;;;2.60;;
15677;SDS011;7939;50.814;6.368;2023-08-06T07:06:18;3.10;;;2.80;;
15677;SDS011;7939;50.814;6.368;2023-08-06T07:08:45;6.35;;;3.03;;
15677;SDS011;7939;50.814;6.368;2023-08-06T07:11:12;3.58;;;2.85;;
15677;SDS011;7939;50.814;6.368;2023-08-06T07:13:38;3.20;;;2.90;;
15677;SDS011;7939;50.814;6.368;2023-08-06T07:16:05;3.67;;;3.30;;
15677;SDS011;7939;50.814;6.368;2023-08-06T07:18:33;3.65;;;2.83;;
15677;SDS011;7939;50.814;6.368;2023-08-06T07:20:59;5.22;;;2.85;;
15677;SDS011;7939;50.814;6.368;2023-08-06T07:23:26;3.25;;;2.97;;
15677;SDS011;7939;50.814;6.368;2023-08-06T07:25:52;3.90;;;2.67;;
15677;SDS011;7939;50.814;6.368;2023-08-06T07:28:19;5.20;;;3.20;;
15677;SDS011;7939;50.814;6.368;2023-08-06T07:30:46;3.00;;;2.45;;
15677;SDS011;7939;50.814;6.368;2023-08-06T07:33:13;3.90;;;2.80;;
15677;SDS011;7939;50.814;6.368;2023-08-06T07:35:40;2.35;;;2.15;;
15677;SDS011;7939;50.814;6.368;2023-08-06T07:38:08;3.30;;;2.67;;
15677;SDS011;7939;50.814;6.368;2023-08-06T07:40:35;3.03;;;2.72;;
15677;SDS011;7939;50.814;6.368;2023-08-06T07:43:02;3.53;;;2.15;;
15677;SDS011;7939;50.814;6.368;2023-08-06T07:45:32;3.38;;;1.92;;
15677;SDS011;7939;50.814;6.368;2023-08-06T07:47:59;1.95;;;1.85;;
15677;SDS011;7939;50.814;6.368;2023-08-06T07:50:25;2.58;;;1.30;;
15677;SDS011;7939;50.814;6.368;2023-08-06T07:52:53;2.17;;;1.20;;
15677;SDS011;7939;50.814;6.368;2023-08-06T07:55:20;1.77;;;1.10;;
15677;SDS011;7939;50.814;6.368;2023-08-06T07:57:46;0.80;;;0.80;;
15677;SDS011;7939;50.814;6.368;2023-08-06T08:00:13;1.42;;;0.80;;
15677;SDS011;7939;50.814;6.368;2023-08-06T08:02:40;1.27;;;0.70;;
15677;SDS011;7939;50.814;6.368;2023-08-06T08:05:06;1.23;;;0.70;;
15677;SDS011;7939;50.814;6.368;2023-08-06T08:07:33;0.80;;;0.70;;
15677;SDS011;7939;50.814;6.368;2023-08-06T08:10:01;1.33;;;0.77;;
15677;SDS011;7939;50.814;6.368;2023-08-06T08:12:28;1.13;;;1.02;;
15677;SDS011;7939;50.814;6.368;2023-08-06T08:14:55;1.17;;;1.00;;
15677;SDS011;7939;50.814;6.368;2023-08-06T08:17:21;0.80;;;0.80;;
15677;SDS011;7939;50.814;6.368;2023-08-06T08:19:48;1.85;;;1.40;;
15677;SDS011;7939;50.814;6.368;2023-08-06T08:22:14;1.20;;;1.10;;
15677;SDS011;7939;50.814;6.368;2023-08-06T08:24:41;3.47;;;1.50;;
15677;SDS011;7939;50.814;6.368;2023-08-06T08:27:09;1.30;;;1.20;;
15677;SDS011;7939;50.814;6.368;2023-08-06T08:29:35;1.63;;;1.50;;
15677;SDS011;7939;50.814;6.368;2023-08-06T08:32:02;3.13;;;0.80;;
15677;SDS011;7939;50.814;6.368;2023-08-06T08:34:28;0.68;;;0.57;;
15677;SDS011;7939;50.814;6.368;2023-08-06T08:36:55;1.40;;;0.70;;
15677;SDS011;7939;50.814;6.368;2023-08-06T08:39:22;0.52;;;0.52;;
15677;SDS011;7939;50.814;6.368;2023-08-06T08:41:48;0.75;;;0.60;;
15677;SDS011;7939;50.814;6.368;2023-08-06T08:44:16;1.40;;;0.50;;
15677;SDS011;7939;50.814;6.368;2023-08-06T08:46:43;0.57;;;0.50;;
15677;SDS011;7939;50.814;6.368;2023-08-06T08:49:11;0.47;;;0.47;;
15677;SDS011;7939;50.814;6.368;2023-08-06T08:51:37;1.33;;;0.45;;
15677;SDS011;7939;50.814;6.368;2023-08-06T08:54:04;0.60;;;0.50;;
15677;SDS011;7939;50.814;6.368;2023-08-06T08:56:33;0.50;;;0.50;;
15677;SDS011;7939;50.814;6.368;2023-08-06T08:59:00;0.60;;;0.60;;
15677;SDS011;7939;50.814;6.368;2023-08-06T09:01:28;1.48;;;0.63;;
15677;SDS011;7939;50.814;6.368;2023-08-06T09:03:55;0.52;;;0.52;;
15677;SDS011;7939;50.814;6.368;2023-08-06T09:06:24;0.60;;;0.60;;
15677;SDS011;7939;50.814;6.368;2023-08-06T09:08:56;0.63;;;0.60;;
15677;SDS011;7939;50.814;6.368;2023-08-06T09:11:32;0.95;;;0.60;;
15677;SDS011;7939;50.814;6.368;2023-08-06T09:14:05;0.90;;;0.90;;
15677;SDS011;7939;50.814;6.368;2023-08-06T09:16:35;2.10;;;1.33;;
15677;SDS011;7939;50.814;6.368;2023-08-06T09:19:06;2.55;;;1.30;;
15677;SDS011;7939;50.814;6.368;2023-08-06T09:21:36;1.77;;;1.42;;
15677;SDS011;7939;50.814;6.368;2023-08-06T09:24:07;2.95;;;1.92;;
15677;SDS011;7939;50.814;6.368;2023-08-06T09:26:35;2.70;;;1.52;;
15677;SDS011;7939;50.814;6.368;2023-08-06T09:29:04;1.77;;;1.50;;
15677;SDS011;7939;50.814;6.368;2023-08-06T09:31:38;2.30;;;1.70;;
15677;SDS011;7939;50.814;6.368;2023-08-06T09:34:10;2.40;;;1.67;;
15677;SDS011;7939;50.814;6.368;2023-08-06T09:36:39;1.35;;;1.25;;
15677;SDS011;7939;50.814;6.368;2023-08-06T09:39:12;4.00;;;1.70;;
15677;SDS011;7939;50.814;6.368;2023-08-06T09:41:39;3.42;;;1.88;;
15677;SDS011;7939;50.814;6.368;2023-08-06T09:44:05;2.47;;;1.92;;
15677;SDS011;7939;50.814;6.368;2023-08-06T09:46:43;1.73;;;1.63;;
15677;SDS011;7939;50.814;6.368;2023-08-06T09:49:13;3.10;;;1.40;;
15677;SDS011;7939;50.814;6.368;2023-08-06T09:51:40;3.38;;;1.70;;
15677;SDS011;7939;50.814;6.368;2023-08-06T09:54:07;3.35;;;1.38;;
15677;SDS011;7939;50.814;6.368;2023-08-06T09:56:37;2.60;;;1.45;;
15677;SDS011;7939;50.814;6.368;2023-08-06T09:59:05;4.38;;;1.75;;
15677;SDS011;7939;50.814;6.368;2023-08-06T10:01:32;2.15;;;1.67;;
15677;SDS011;7939;50.814;6.368;2023-08-06T10:04:02;2.22;;;1.25;;
15677;SDS011;7939;50.814;6.368;2023-08-06T10:06:31;3.78;;;1.65;;
15677;SDS011;7939;50.814;6.368;2023-08-06T10:09:00;2.65;;;1.83;;
15677;SDS011;7939;50.814;6.368;2023-08-06T10:11:26;2.08;;;0.95;;
15677;SDS011;7939;50.814;6.368;2023-08-06T10:13:57;2.33;;;1.13;;
15677;SDS011;7939;50.814;6.368;2023-08-06T10:16:28;2.90;;;1.00;;
15677;SDS011;7939;50.814;6.368;2023-08-06T10:18:56;2.30;;;1.23;;
15677;SDS011;7939;50.814;6.368;2023-08-06T10:21:24;1.52;;;1.20;;
15677;SDS011;7939;50.814;6.368;2023-08-06T10:23:53;3.63;;;1.58;;
15677;SDS011;7939;50.814;6.368;2023-08-06T10:26:20;1.88;;;1.65;;
15677;SDS011;7939;50.814;6.368;2023-08-06T10:28:51;2.03;;;1.30;;
15677;SDS011;7939;50.814;6.368;2023-08-06T10:31:18;1.40;;;1.05;;
15677;SDS011;7939;50.814;6.368;2023-08-06T10:33:45;3.10;;;1.20;;
15677;SDS011;7939;50.814;6.368;2023-08-06T10:36:13;2.33;;;1.20;;
15677;SDS011;7939;50.814;6.368;2023-08-06T10:38:45;2.40;;;1.42;;
15677;SDS011;7939;50.814;6.368;2023-08-06T10:41:15;3.08;;;1.42;;
15677;SDS011;7939;50.814;6.368;2023-08-06T10:43:45;1.70;;;1.30;;
15677;SDS011;7939;50.814;6.368;2023-08-06T10:46:21;3.88;;;1.25;;
15677;SDS011;7939;50.814;6.368;2023-08-06T10:48:48;1.73;;;1.23;;
15677;SDS011;7939;50.814;6.368;2023-08-06T10:51:15;1.50;;;1.05;;
15677;SDS011;7939;50.814;6.368;2023-08-06T10:53:43;2.78;;;1.45;;
15677;SDS011;7939;50.814;6.368;2023-08-06T10:56:12;1.88;;;1.30;;
15677;SDS011;7939;50.814;6.368;2023-08-06T10:58:39;1.80;;;1.70;;
15677;SDS011;7939;50.814;6.368;2023-08-06T11:01:06;1.77;;;1.20;;
15677;SDS011;7939;50.814;6.368;2023-08-06T11:03:33;3.35;;;1.40;;
15677;SDS011;7939;50.814;6.368;2023-08-06T11:06:00;1.40;;;1.30;;
15677;SDS011;7939;50.814;6.368;2023-08-06T11:08:28;2.88;;;1.42;;
15677;SDS011;7939;50.814;6.368;2023-08-06T11:11:08;2.65;;;1.20;;
15677;SDS011;7939;50.814;6.368;2023-08-06T11:13:36;4.50;;;1.48;;
15677;SDS011;7939;50.814;6.368;2023-08-06T11:16:03;1.13;;;1.02;;
15677;SDS011;7939;50.814;6.368;2023-08-06T11:18:31;3.20;;;1.58;;
15677;SDS011;7939;50.814;6.368;2023-08-06T11:20:58;2.42;;;1.30;;
15677;SDS011;7939;50.814;6.368;2023-08-06T11:23:25;4.93;;;1.23;;
15677;SDS011;7939;50.814;6.368;2023-08-06T11:25:53;1.35;;;1.05;;
15677;SDS011;7939;50.814;6.368;2023-08-06T11:28:21;3.30;;;1.20;;
15677;SDS011;7939;50.814;6.368;2023-08-06T11:30:47;0.93;;;0.88;;
15677;SDS011;7939;50.814;6.368;2023-08-06T11:33:14;1.67;;;1.13;;
15677;SDS011;7939;50.814;6.368;2023-08-06T11:35:41;4.60;;;1.90;;
15677;SDS011;7939;50.814;6.368;2023-08-06T11:38:07;2.20;;;1.38;;
15677;SDS011;7939;50.814;6.368;2023-08-06T11:40:35;1.35;;;1.10;;
15677;SDS011;7939;50.814;6.368;2023-08-06T11:43:02;2.17;;;1.48;;
15677;SDS011;7939;50.814;6.368;2023-08-06T11:45:30;2.50;;;1.30;;
15677;SDS011;7939;50.814;6.368;2023-08-06T11:47:56;3.20;;;1.20;;
15677;SDS011;7939;50.814;6.368;2023-08-06T11:50:24;2.42;;;1.00;;
15677;SDS011;7939;50.814;6.368;2023-08-06T11:52:52;1.05;;;0.90;;
15677;SDS011;7939;50.814;6.368;2023-08-06T11:55:22;1.67;;;0.90;;
15677;SDS011;7939;50.814;6.368;2023-08-06T11:57:49;1.25;;;1.00;;
15677;SDS011;7939;50.814;6.368;2023-08-06T12:00:16;1.50;;;1.17;;
15677;SDS011;7939;50.814;6.368;2023-08-06T12:02:46;1.90;;;0.90;;
15677;SDS011;7939;50.814;6.368;2023-08-06T12:05:14;1.92;;;1.00;;
15677;SDS011;7939;50.814;6.368;2023-08-06T12:07:42;0.98;;;0.75;;
15677;SDS011;7939;50.814;6.368;2023-08-06T12:10:10;0.90;;;0.85;;
15677;SDS011;7939;50.814;6.368;2023-08-06T12:12:36;2.40;;;1.10;;
15677;SDS011;7939;50.814;6.368;2023-08-06T12:15:04;1.33;;;0.90;;
15677;SDS011;7939;50.814;6.368;2023-08-06T12:17:31;1.17;;;0.85;;
15677;SDS011;7939;50.814;6.368;2023-08-06T12:20:00;0.82;;;0.65;;
15677;SDS011;7939;50.814;6.368;2023-08-06T12:22:26;1.02;;;1.00;;
15677;SDS011;7939;50.814;6.368;2023-08-06T12:24:56;1.50;;;0.90;;
15677;SDS011;7939;50.814;6.368;2023-08-06T12:27:23;1.75;;;1.02;;
15677;SDS011;7939;50.814;6.368;2023-08-06T12:29:49;2.58;;;1.20;;
15677;SDS011;7939;50.814;6.368;2023-08-06T12:32:16;2.78;;;0.85;;
15677;SDS011;7939;50.814;6.368;2023-08-06T12:34:42;2.00;;;0.88;;
15677;SDS011;7939;50.814;6.368;2023-08-06T12:37:10;2.35;;;0.77;;
15677;SDS011;7939;50.814;6.368;2023-08-06T12:39:37;1.73;;;0.90;;
15677;SDS011;7939;50.814;6.368;2023-08-06T12:42:04;1.15;;;1.00;;
15677;SDS011;7939;50.814;6.368;2023-08-06T12:44:32;1.48;;;1.25;;
15677;SDS011;7939;50.814;6.368;2023-08-06T12:46:58;1.17;;;1.00;;
15677;SDS011;7939;50.814;6.368;2023-08-06T12:49:25;2.95;;;1.52;;
15677;SDS011;7939;50.814;6.368;2023-08-06T12:51:53;2.60;;;1.23;;
15677;SDS011;7939;50.814;6.368;2023-08-06T12:54:23;1.35;;;1.17;;
15677;SDS011;7939;50.814;6.368;2023-08-06T12:56:49;2.95;;;1.50;;
15677;SDS011;7939;50.814;6.368;2023-08-06T12:59:16;2.65;;;1.27;;
15677;SDS011;7939;50.814;6.368;2023-08-06T13:01:43;2.22;;;1.60;;
15677;SDS011;7939;50.814;6.368;2023-08-06T13:04:11;2.70;;;1.73;;
15677;SDS011;7939;50.814;6.368;2023-08-06T13:06:38;2.55;;;1.45;;
15677;SDS011;7939;50.814;6.368;2023-08-06T13:09:05;3.83;;;1.60;;
15677;SDS011;7939;50.814;6.368;2023-08-06T13:11:33;3.58;;;1.30;;
15677;SDS011;7939;50.814;6.368;2023-08-06T13:14:03;2.63;;;1.40;;
15677;SDS011;7939;50.814;6.368;2023-08-06T13:16:31;3.50;;;1.48;;
15677;SDS011;7939;50.814;6.368;2023-08-06T13:18:57;4.03;;;1.35;;
15677;SDS011;7939;50.814;6.368;2023-08-06T13:21:24;1.48;;;0.88;;
15677;SDS011;7939;50.814;6.368;2023-08-06T13:23:50;3.28;;;1.40;;
15677;SDS011;7939;50.814;6.368;2023-08-06T13:26:17;2.25;;;1.20;;
15677;SDS011;7939;50.814;6.368;2023-08-06T13:28:45;1.35;;;1.10;;
15677;SDS011;7939;50.814;6.368;2023-08-06T13:31:13;1.73;;;1.20;;
15677;SDS011;7939;50.814;6.368;2023-08-06T13:33:39;4.00;;;1.35;;
15677;SDS011;7939;50.814;6.368;2023-08-06T13:36:06;2.58;;;0.98;;
15677;SDS011;7939;50.814;6.368;2023-08-06T13:38:32;2.83;;;0.90;;
15677;SDS011;7939;50.814;6.368;2023-08-06T13:40:59;0.88;;;0.88;;
15677;SDS011;7939;50.814;6.368;2023-08-06T13:43:26;2.38;;;1.00;;
15677;SDS011;7939;50.814;6.368;2023-08-06T13:45:54;1.50;;;1.00;;
15677;SDS011;7939;50.814;6.368;2023-08-06T13:48:21;3.85;;;1.20;;
15677;SDS011;7939;50.814;6.368;2023-08-06T13:50:47;1.73;;;1.00;;
15677;SDS011;7939;50.814;6.368;2023-08-06T13:53:14;1.70;;;1.10;;
15677;SDS011;7939;50.814;6.368;2023-08-06T13:55:40;2.92;;;1.05;;
15677;SDS011;7939;50.814;6.368;2023-08-06T13:58:07;0.70;;;0.65;;
15677;SDS011;7939;50.814;6.368;2023-08-06T14:00:35;0.93;;;0.73;;
15677;SDS011;7939;50.814;6.368;2023-08-06T14:03:03;0.63;;;0.60;;
15677;SDS011;7939;50.814;6.368;2023-08-06T14:05:29;0.77;;;0.70;;
15677;SDS011;7939;50.814;6.368;2023-08-06T14:07:56;0.73;;;0.70;;
15677;SDS011;7939;50.814;6.368;2023-08-06T14:10:22;1.00;;;0.77;;
15677;SDS011;7939;50.814;6.368;2023-08-06T14:12:49;1.48;;;0.60;;
15677;SDS011;7939;50.814;6.368;2023-08-06T14:15:15;0.82;;;0.70;;
15677;SDS011;7939;50.814;6.368;2023-08-06T14:17:42;0.82;;;0.65;;
15677;SDS011;7939;50.814;6.368;2023-08-06T14:20:10;0.70;;;0.57;;
15677;SDS011;7939;50.814;6.368;2023-08-06T14:22:38;0.88;;;0.70;;
15677;SDS011;7939;50.814;6.368;2023-08-06T14:25:05;1.35;;;0.70;;
15677;SDS011;7939;50.814;6.368;2023-08-06T14:27:32;0.70;;;0.68;;
15677;SDS011;7939;50.814;6.368;2023-08-06T14:29:58;1.70;;;0.80;;
15677;SDS011;7939;50.814;6.368;2023-08-06T14:32:26;2.67;;;0.70;;
15677;SDS011;7939;50.814;6.368;2023-08-06T14:34:52;0.88;;;0.63;;
15677;SDS011;7939;50.814;6.368;2023-08-06T14:37:20;2.45;;;0.82;;
15677;SDS011;7939;50.814;6.368;2023-08-06T14:39:47;1.80;;;0.80;;
15677;SDS011;7939;50.814;6.368;2023-08-06T14:42:13;0.90;;;0.80;;
15677;SDS011;7939;50.814;6.368;2023-08-06T14:44:40;2.65;;;0.88;;
15677;SDS011;7939;50.814;6.368;2023-08-06T14:47:07;1.02;;;0.60;;
15677;SDS011;7939;50.814;6.368;2023-08-06T14:49:33;0.85;;;0.82;;
15677;SDS011;7939;50.814;6.368;2023-08-06T14:52:00;1.42;;;0.80;;
15677;SDS011;7939;50.814;6.368;2023-08-06T14:54:28;1.45;;;0.82;;
15677;SDS011;7939;50.814;6.368;2023-08-06T14:56:54;1.65;;;0.77;;
15677;SDS011;7939;50.814;6.368;2023-08-06T14:59:22;1.13;;;0.63;;
15677;SDS011;7939;50.814;6.368;2023-08-06T15:01:48;1.95;;;1.00;;